createdAt,value
2019-05-22T00:04:55.779Z,"    0"
2019-05-22T00:09:53.054Z,"    0"
2019-05-22T00:14:51.491Z,"    0"
2019-05-22T00:19:48.707Z,"    0"
2019-05-22T00:24:45.781Z,"    0"
2019-05-22T00:29:43.074Z,"    0"
2019-05-22T00:34:40.105Z,"    0"
2019-05-22T00:39:37.078Z,"    0"
2019-05-22T00:44:34.385Z,"    0"
2019-05-22T00:49:30.847Z,"    0"
2019-05-22T00:54:27.811Z,"    0"
2019-05-22T00:59:26.137Z,"    0"
2019-05-22T01:04:22.712Z,"    0"
2019-05-22T01:09:20.020Z,"    0"
2019-05-22T01:14:17.377Z,"    0"
2019-05-22T01:19:14.916Z,"    0"
2019-05-22T01:24:11.790Z,"    0"
2019-05-22T01:29:08.981Z,"    0"
2019-05-22T01:34:06.975Z,"    0"
2019-05-22T01:39:04.523Z,"    0"
2019-05-22T01:44:01.582Z,"    0"
2019-05-22T01:48:58.763Z,"    0"
2019-05-22T01:53:56.077Z,"    0"
2019-05-22T01:58:54.453Z,"    0"
2019-05-22T02:03:52.569Z,"    0"
2019-05-22T02:08:49.151Z,"    0"
2019-05-22T02:13:46.312Z,"    0"
2019-05-22T02:18:43.721Z,"    0"
2019-05-22T02:23:40.573Z,"    0"
2019-05-22T02:28:37.871Z,"    0"
2019-05-22T02:33:35.155Z,"    0"
2019-05-22T02:38:32.458Z,"    0"
2019-05-22T02:43:29.439Z,"    0"
2019-05-22T02:48:27.105Z,"    0"
2019-05-22T02:53:24.328Z,"    0"
2019-05-22T02:58:21.470Z,"    0"
2019-05-22T03:03:18.349Z,"    0"
2019-05-22T03:08:15.455Z,"    0"
2019-05-22T03:13:13.566Z,"    0"
2019-05-22T03:18:11.378Z,"    0"
2019-05-22T03:23:07.978Z,"    0"
2019-05-22T03:28:06.420Z,"    0"
2019-05-22T03:33:04.321Z,"    0"
2019-05-22T03:38:02.897Z,"    0"
2019-05-22T03:42:59.700Z,"    0"
2019-05-22T03:47:56.553Z,"    5"
2019-05-22T03:52:53.700Z,"    5"
2019-05-22T03:57:50.501Z,"    5"
2019-05-22T04:02:47.635Z,"    5"
2019-05-22T04:07:46.303Z,"   10"
2019-05-22T04:12:43.297Z,"   10"
2019-05-22T04:17:41.211Z,"   10"
2019-05-22T04:22:38.172Z,"   10"
2019-05-22T04:27:35.123Z,"    5"
2019-05-22T04:32:32.116Z,"    5"
2019-05-22T04:37:29.035Z,"   10"
2019-05-22T04:42:25.709Z,"   15"
2019-05-22T04:47:23.106Z,"   20"
2019-05-22T04:52:21.025Z,"   25"
2019-05-22T04:57:18.001Z,"   15"
2019-05-22T05:02:15.253Z,"   15"
2019-05-22T05:07:13.401Z,"   15"
2019-05-22T05:12:10.872Z,"   10"
2019-05-22T05:17:08.859Z,"   20"
2019-05-22T05:22:05.848Z,"   20"
2019-05-22T05:27:03.907Z,"   20"
2019-05-22T05:32:00.828Z,"   30"
2019-05-22T05:36:58.013Z,"   40"
2019-05-22T05:41:56.575Z,"   45"
2019-05-22T05:46:53.170Z,"   30"
2019-05-22T05:51:50.373Z,"   30"
2019-05-22T05:56:46.890Z,"   30"
2019-05-22T06:01:44.146Z,"   35"
2019-05-22T06:06:42.190Z,"   50"
2019-05-22T06:11:38.615Z,"   65"
2019-05-22T06:16:36.293Z,"  100"
2019-05-22T06:21:33.758Z,"   90"
2019-05-22T06:26:30.880Z,"   90"
2019-05-22T06:31:28.238Z,"   85"
2019-05-22T06:36:24.873Z,"   90"
2019-05-22T06:41:21.974Z,"   70"
2019-05-22T06:46:19.197Z,"   80"
2019-05-22T06:51:19.517Z,"   75"
2019-05-22T06:56:16.633Z,"   55"
2019-05-22T07:01:12.976Z,"   45"
2019-05-22T07:06:10.101Z,"   65"
2019-05-22T07:11:06.698Z,"   55"
2019-05-22T07:16:04.030Z,"   55"
2019-05-22T07:21:01.996Z,"   65"
2019-05-22T07:25:58.623Z,"   75"
2019-05-22T07:30:55.955Z,"  100"
2019-05-22T07:36:08.355Z,"   95"
2019-05-22T07:40:54.044Z,"   95"
2019-05-22T07:45:51.505Z,"   95"
2019-05-22T07:50:49.288Z,"   85"
2019-05-22T07:55:46.269Z,"   75"
2019-05-22T08:00:44.404Z,"   85"
2019-05-22T08:05:41.172Z,"   95"
2019-05-22T08:10:38.236Z,"  115"
2019-05-22T08:15:36.603Z,"  170"
2019-05-22T08:20:33.893Z,"  190"
2019-05-22T08:25:30.870Z,"  195"
2019-05-22T08:30:27.965Z,"  160"
2019-05-22T08:35:25.220Z,"  155"
2019-05-22T08:40:22.719Z,"  175"
2019-05-22T08:45:21.177Z,"  150"
2019-05-22T08:50:17.526Z,"  140"
2019-05-22T08:55:15.726Z,"  110"
2019-05-22T09:00:12.569Z,"  105"
2019-05-22T09:05:08.973Z,"  150"
2019-05-22T09:10:06.211Z,"  165"
2019-05-22T09:15:03.718Z,"  160"
2019-05-22T09:20:00.635Z,"  185"
2019-05-22T09:24:58.664Z,"  165"
2019-05-22T09:29:55.807Z,"  185"
2019-05-22T09:34:52.737Z,"  255"
2019-05-22T09:39:49.290Z,"  220"
2019-05-22T09:44:47.108Z,"  240"
2019-05-22T09:49:43.963Z,"  220"
2019-05-22T09:54:40.861Z,"  345"
2019-05-22T09:59:38.715Z,"  260"
2019-05-22T10:04:36.503Z,"  340"
2019-05-22T10:09:34.243Z,"  555"
2019-05-22T10:14:32.493Z," 2100"
2019-05-22T10:19:30.459Z,"  760"
2019-05-22T10:24:27.582Z,"  465"
2019-05-22T10:29:25.181Z,"  355"
2019-05-22T10:34:22.985Z,"  745"
2019-05-22T10:39:24.715Z," 2120"
2019-05-22T10:44:24.153Z,"  340"
2019-05-22T10:49:21.441Z,"  465"
2019-05-22T10:54:17.380Z," 2010"
2019-05-22T10:59:14.325Z,"  375"
2019-05-22T11:04:12.403Z," 1055"
2019-05-22T11:09:12.026Z," 1210"
2019-05-22T11:14:09.638Z,"  900"
2019-05-22T11:19:07.212Z," 2025"
2019-05-22T11:24:05.536Z,"  295"
2019-05-22T11:29:04.104Z," 1495"
2019-05-22T11:33:58.259Z," 1980"
2019-05-22T11:38:56.464Z," 1345"
2019-05-22T11:43:55.290Z,"  525"
2019-05-22T11:48:53.208Z,"  500"
2019-05-22T11:53:48.109Z," 1295"
2019-05-22T11:58:48.641Z,"  230"
2019-05-22T12:03:44.158Z," 1230"
2019-05-22T12:08:38.532Z," 1935"
2019-05-22T12:13:37.516Z," 1960"
2019-05-22T12:18:34.836Z,"  355"
2019-05-22T12:23:31.903Z," 1950"
2019-05-22T12:28:30.133Z," 1200"
2019-05-22T12:33:28.044Z," 2095"
2019-05-22T12:38:27.186Z," 1705"
2019-05-22T12:43:25.158Z," 1930"
2019-05-22T12:48:19.766Z," 1960"
2019-05-22T12:53:17.749Z," 1925"
2019-05-22T12:58:15.503Z,"  310"
2019-05-22T13:03:13.061Z,"  235"
2019-05-22T13:08:10.740Z," 1985"
2019-05-22T13:13:07.847Z,"  245"
2019-05-22T13:18:05.159Z," 1820"
2019-05-22T13:23:01.336Z,"  225"
2019-05-22T13:27:58.609Z," 1260"
2019-05-22T13:32:54.902Z," 1660"
2019-05-22T13:37:52.432Z," 1875"
2019-05-22T13:42:50.687Z," 1755"
2019-05-22T13:47:48.387Z," 1840"
2019-05-22T13:52:46.982Z," 1700"
2019-05-22T13:57:44.356Z," 1580"
2019-05-22T14:02:40.823Z," 1650"
2019-05-22T14:07:36.676Z,"  200"
2019-05-22T14:12:33.297Z,"  190"
2019-05-22T14:17:29.815Z,"  190"
2019-05-22T14:22:26.126Z,"  180"
2019-05-22T14:27:22.453Z,"  140"
2019-05-22T14:32:18.534Z,"  185"
2019-05-22T14:37:15.637Z,"  175"
2019-05-22T14:42:12.112Z,"  180"
2019-05-22T14:47:14.676Z,"  160"
2019-05-22T14:52:10.213Z,"  175"
2019-05-22T14:57:07.297Z,"  195"
2019-05-22T15:02:04.631Z,"  175"
2019-05-22T15:07:01.836Z,"  160"
2019-05-22T15:11:58.795Z,"  160"
2019-05-22T15:16:55.978Z,"  170"
2019-05-22T15:21:53.227Z,"  185"
2019-05-22T15:26:49.881Z,"  140"
2019-05-22T15:31:46.662Z,"  135"
2019-05-22T15:36:43.186Z,"  150"
2019-05-22T15:41:40.773Z,"  160"
2019-05-22T15:46:37.364Z,"  140"
2019-05-22T15:51:35.183Z,"  130"
2019-05-22T15:56:33.393Z,"  110"
2019-05-22T16:01:29.261Z,"  110"
2019-05-22T16:06:27.685Z,"   95"
2019-05-22T16:11:24.251Z,"  110"
2019-05-22T16:16:20.415Z,"  105"
2019-05-22T16:21:17.672Z,"  110"
2019-05-22T16:26:15.194Z,"  100"
2019-05-22T16:31:13.358Z,"   85"
2019-05-22T16:36:10.985Z,"   90"
2019-05-22T16:41:08.152Z,"   85"
2019-05-22T16:46:05.230Z,"   85"
2019-05-22T16:51:02.897Z,"   85"
2019-05-22T16:55:59.832Z,"   90"
2019-05-22T17:00:57.370Z,"   85"
2019-05-22T17:05:54.057Z,"   80"
2019-05-22T17:10:51.523Z,"   75"
2019-05-22T17:15:48.367Z,"   70"
2019-05-22T17:20:45.421Z,"   80"
2019-05-22T17:25:42.709Z,"   85"
2019-05-22T17:30:39.996Z,"   80"
2019-05-22T17:35:36.611Z,"   70"
2019-05-22T17:40:33.871Z,"   60"
2019-05-22T17:45:30.918Z,"   60"
2019-05-22T17:50:27.920Z,"   55"
2019-05-22T17:55:24.926Z,"   60"
2019-05-22T18:00:22.037Z,"   55"
2019-05-22T18:05:19.132Z,"   50"
2019-05-22T18:10:16.637Z,"   45"
2019-05-22T18:15:13.420Z,"   40"
2019-05-22T18:20:10.697Z,"   40"
2019-05-22T18:25:07.834Z,"   40"
2019-05-22T18:30:04.854Z,"   40"
2019-05-22T18:35:02.683Z,"   35"
2019-05-22T18:40:00.220Z,"   30"
2019-05-22T18:44:57.205Z,"   30"
2019-05-22T18:49:54.105Z,"   25"
2019-05-22T18:54:51.259Z,"   20"
2019-05-22T18:59:48.273Z,"   15"
2019-05-22T19:04:46.600Z,"   10"
2019-05-22T19:09:43.550Z,"   10"
2019-05-22T19:14:40.328Z,"    5"
2019-05-22T19:19:38.405Z,"    5"
2019-05-22T19:24:36.371Z,"    0"
2019-05-22T19:29:33.482Z,"    0"
2019-05-22T19:34:29.862Z,"    0"
2019-05-22T19:39:26.814Z,"    0"
2019-05-22T19:44:24.630Z,"    0"
2019-05-22T19:49:21.781Z,"    0"
2019-05-22T19:54:19.566Z,"    0"
2019-05-22T19:59:17.988Z,"    0"
2019-05-22T20:04:15.517Z,"    0"
2019-05-22T20:09:13.526Z,"    0"
2019-05-22T20:14:10.387Z,"    0"
2019-05-22T20:19:07.065Z,"    0"
2019-05-22T20:24:04.918Z,"    0"
2019-05-22T20:29:02.586Z,"    0"
2019-05-22T20:33:59.600Z,"    0"
2019-05-22T20:38:55.661Z,"    0"
2019-05-22T20:43:51.481Z,"    0"
2019-05-22T20:48:47.535Z,"    0"
2019-05-22T20:53:54.060Z,"    0"
2019-05-22T20:58:46.009Z,"    0"
2019-05-22T21:03:42.951Z,"    0"
2019-05-22T21:08:41.191Z,"    0"
2019-05-22T21:13:38.113Z,"    0"
2019-05-22T21:18:34.972Z,"    0"
2019-05-22T21:23:31.812Z,"    0"
2019-05-22T21:28:28.677Z,"    0"
2019-05-22T21:33:27.018Z,"    0"
2019-05-22T21:38:23.668Z,"    0"
2019-05-22T21:43:21.646Z,"    0"
2019-05-22T21:48:18.610Z,"    0"
2019-05-22T21:53:15.545Z,"    0"
2019-05-22T21:58:13.760Z,"    0"
2019-05-22T22:03:11.885Z,"    0"
2019-05-22T22:08:09.093Z,"    0"
2019-05-22T22:13:07.792Z,"    0"
2019-05-22T22:18:04.479Z,"    0"
2019-05-22T22:23:02.512Z,"    0"
2019-05-22T22:27:59.239Z,"    0"
2019-05-22T22:32:56.558Z,"    0"
2019-05-22T22:37:54.085Z,"    0"
2019-05-22T22:42:50.491Z,"    0"
2019-05-22T22:47:47.691Z,"    0"
2019-05-22T22:52:44.556Z,"    0"
2019-05-22T22:57:41.866Z,"    0"
2019-05-22T23:02:39.865Z,"    0"
2019-05-22T23:07:36.565Z,"    0"
2019-05-22T23:12:33.519Z,"    0"
2019-05-22T23:17:30.351Z,"    0"
2019-05-22T23:22:27.743Z,"    0"
2019-05-22T23:27:25.016Z,"    0"
2019-05-22T23:32:20.620Z,"    0"
2019-05-22T23:37:18.900Z,"    0"
2019-05-22T23:42:14.901Z,"    0"
2019-05-22T23:47:12.324Z,"    0"
2019-05-22T23:52:08.967Z,"    0"
2019-05-22T23:57:06.446Z,"    0"
